Time;durP1;ratioP1;P1;durP2;ratioP2;P2;SDS_P1;SDS_P2;PMS_P1;PMS_P2;Temp;Humidity;BMP_temperature;BMP_pressure;BME280_temperature;BME280_humidity;BME280_pressure;Samples;Min_cycle;Max_cycle;Signal;HPM_P1;HPM_P2
2022/08/31 00:03:54;;;;;;;0.00;0.00;;;;;;;8.70;100.00;102491.25;10374360;28;20472;-73
2022/08/31 00:08:54;;;;;;;0.00;0.00;;;;;;;8.70;100.00;102487.75;10408148;28;20045;-73
2022/08/31 00:14:00;;;;;;;0.00;0.00;;;;;;;8.55;100.00;102487.84;10407162;28;20059;-73
2022/08/31 00:19:00;;;;;;;0.00;0.00;;;;;;;8.56;100.00;102486.88;10407477;28;20323;-73
2022/08/31 00:24:01;;;;;;;0.00;0.00;;;;;;;8.52;100.00;102477.44;10406999;28;20052;-73
2022/08/31 00:29:03;;;;;;;0.00;0.00;;;;;;;8.37;100.00;102470.47;10405953;28;20087;-73
2022/08/31 00:34:04;;;;;;;0.00;0.00;;;;;;;8.22;100.00;102467.03;10403593;28;20283;-73
2022/08/31 00:39:06;;;;;;;0.08;0.08;;;;;;;8.06;100.00;102469.91;10405615;28;20384;-73
2022/08/31 00:44:08;;;;;;;0.00;0.00;;;;;;;7.97;100.00;102472.28;10406657;28;20104;-73
2022/08/31 00:49:23;;;;;;;0.00;0.00;;;;;;;7.94;100.00;102476.00;10411248;28;20744;-73
2022/08/31 00:54:29;;;;;;;0.10;0.10;;;;;;;7.89;100.00;102475.47;10413684;28;20037;-73
2022/08/31 00:59:30;;;;;;;0.00;0.00;;;;;;;7.83;100.00;102473.22;10414386;28;20044;-73
2022/08/31 01:04:31;;;;;;;0.00;0.00;;;;;;;7.88;100.00;102471.09;10411189;28;20384;-73
2022/08/31 01:09:35;;;;;;;0.00;0.00;;;;;;;7.92;100.00;102475.28;10413055;28;20017;-73
2022/08/31 01:14:37;;;;;;;0.00;0.00;;;;;;;7.83;100.00;102471.41;10412897;28;20064;-73
2022/08/31 01:19:44;;;;;;;0.00;0.00;;;;;;;7.83;100.00;102473.22;10413552;28;20152;-73
2022/08/31 01:24:47;;;;;;;0.00;0.00;;;;;;;7.82;100.00;102474.16;10412301;28;20500;-73
2022/08/31 01:29:47;;;;;;;0.00;0.00;;;;;;;7.82;100.00;102484.78;10412753;28;20032;-73
2022/08/31 01:34:48;;;;;;;0.00;0.00;;;;;;;7.83;100.00;102468.78;10410455;28;20522;-73
2022/08/31 01:39:49;;;;;;;0.10;0.10;;;;;;;7.83;100.00;102475.88;10412026;28;20026;-73
2022/08/31 01:44:49;;;;;;;0.00;0.00;;;;;;;7.85;100.00;102476.59;10410358;28;20546;-74
2022/08/31 01:49:50;;;;;;;0.00;0.00;;;;;;;7.85;100.00;102479.25;10410720;28;20120;-73
2022/08/31 01:54:50;;;;;;;0.00;0.00;;;;;;;7.83;100.00;102481.19;10411953;28;20258;-73
2022/08/31 01:59:50;;;;;;;0.00;0.00;;;;;;;7.87;100.00;102488.81;10411356;28;20048;-73
2022/08/31 02:04:51;;;;;;;0.00;0.00;;;;;;;7.90;100.00;102488.63;10409334;28;20021;-73
2022/08/31 02:09:51;;;;;;;0.00;0.00;;;;;;;7.91;100.00;102486.81;10411290;28;20091;-73
2022/08/31 02:14:51;;;;;;;0.00;0.00;;;;;;;7.99;100.00;102503.09;10409116;28;20385;-73
2022/08/31 02:19:51;;;;;;;0.00;0.00;;;;;;;7.94;100.00;102489.25;10410728;28;20622;-73
2022/08/31 02:24:52;;;;;;;0.00;0.00;;;;;;;7.88;100.00;102487.03;10410071;28;20276;-73
2022/08/31 02:29:52;;;;;;;0.00;0.00;;;;;;;7.90;100.00;102483.31;10409123;28;20059;-73
2022/08/31 02:34:53;;;;;;;0.00;0.00;;;;;;;7.97;100.00;102485.56;10408466;28;20264;-72
2022/08/31 02:39:53;;;;;;;0.00;0.00;;;;;;;7.77;100.00;102482.44;10409863;28;20542;-73
2022/08/31 02:44:53;;;;;;;0.00;0.00;;;;;;;7.63;100.00;102479.84;10409433;28;20296;-73
2022/08/31 02:49:54;;;;;;;0.00;0.00;;;;;;;7.55;100.00;102485.63;10409484;28;20079;-73
2022/08/31 02:54:54;;;;;;;0.00;0.00;;;;;;;7.50;100.00;102479.75;10409080;28;20021;-73
2022/08/31 02:59:54;;;;;;;0.00;0.00;;;;;;;7.48;100.00;102486.97;10409940;28;20268;-73
2022/08/31 03:04:55;;;;;;;0.00;0.00;;;;;;;7.40;100.00;102483.97;10406993;28;20280;-73
2022/08/31 03:09:56;;;;;;;0.00;0.00;;;;;;;7.36;100.00;102482.44;10408495;28;20685;-73
2022/08/31 03:14:56;;;;;;;0.00;0.00;;;;;;;7.18;100.00;102477.34;10408679;28;20614;-73
2022/08/31 03:19:59;;;;;;;0.00;0.00;;;;;;;6.99;100.00;102469.72;10409330;28;20017;-73
2022/08/31 03:25:00;;;;;;;0.00;0.00;;;;;;;6.92;100.00;102472.84;10405467;28;20027;-72
2022/08/31 03:30:00;;;;;;;0.00;0.00;;;;;;;6.89;100.00;102478.31;10404713;28;20029;-73
2022/08/31 03:35:02;;;;;;;0.00;0.00;;;;;;;6.80;100.00;102471.78;10406203;28;20273;-72
2022/08/31 03:40:02;;;;;;;0.00;0.00;;;;;;;6.80;100.00;102475.28;10406331;28;20041;-73
2022/08/31 03:45:03;;;;;;;0.00;0.00;;;;;;;6.86;100.00;102478.50;10407721;28;20377;-72
2022/08/31 03:50:05;;;;;;;0.00;0.00;;;;;;;6.90;100.00;102485.34;10407760;28;20029;-72
2022/08/31 03:55:07;;;;;;;0.00;0.00;;;;;;;6.95;100.00;102488.53;10407236;28;20524;-73
2022/08/31 04:00:08;;;;;;;0.00;0.00;;;;;;;7.02;100.00;102487.22;10407834;28;20489;-73
2022/08/31 04:05:09;;;;;;;0.00;0.00;;;;;;;6.98;100.00;102491.00;10403925;28;20030;-73
2022/08/31 04:10:13;;;;;;;0.00;0.00;;;;;;;6.92;100.00;102500.19;10408492;28;20397;-72
2022/08/31 04:15:14;;;;;;;0.00;0.00;;;;;;;6.94;100.00;102508.03;10406210;28;20040;-72
2022/08/31 04:20:15;;;;;;;0.00;0.00;;;;;;;6.92;100.00;102501.97;10407203;28;20021;-72
2022/08/31 04:25:15;;;;;;;0.00;0.00;;;;;;;7.00;100.00;102497.06;10414480;28;20029;-73
2022/08/31 04:30:16;;;;;;;0.00;0.00;;;;;;;7.23;100.00;102501.78;10415297;28;20064;-72
2022/08/31 04:35:16;;;;;;;0.00;0.00;;;;;;;7.41;100.00;102504.22;10412590;28;20120;-72
2022/08/31 04:40:18;;;;;;;0.00;0.00;;;;;;;8.08;100.00;102507.78;10414634;28;20028;-72
2022/08/31 04:45:18;;;;;;;0.00;0.00;;;;;;;9.10;100.00;102514.16;10414180;28;20755;-72
2022/08/31 04:50:19;;;;;;;0.00;0.00;;;;;;;10.18;100.00;102511.56;10414592;28;20029;-72
2022/08/31 04:55:19;;;;;;;0.00;0.00;;;;;;;11.37;100.00;102515.75;10413869;28;20026;-73
2022/08/31 05:00:20;;;;;;;0.00;0.00;;;;;;;12.45;100.00;102520.16;10413802;28;20067;-73
2022/08/31 05:05:21;;;;;;;0.10;0.10;;;;;;;13.46;100.00;102513.19;10444546;22;20046;-74
2022/08/31 05:10:23;;;;;;;0.10;0.10;;;;;;;14.23;100.00;102519.63;10421664;28;20488;-74
2022/08/31 05:15:23;;;;;;;0.10;0.10;;;;;;;15.18;100.00;102521.38;10435715;28;20022;-74
2022/08/31 05:20:24;;;;;;;0.10;0.10;;;;;;;16.40;100.00;102521.00;10421700;28;20108;-73
2022/08/31 05:25:26;;;;;;;0.10;0.10;;;;;;;17.35;98.87;102521.91;10412920;28;20116;-73
2022/08/31 05:30:26;;;;;;;0.10;0.10;;;;;;;18.24;94.18;102520.44;10412883;28;20029;-74
2022/08/31 05:35:27;;;;;;;0.10;0.10;;;;;;;18.87;90.21;102526.94;10409840;28;20021;-75
2022/08/31 05:40:27;;;;;;;0.10;0.10;;;;;;;19.47;87.26;102528.25;10413594;28;20430;-74
2022/08/31 05:45:27;;;;;;;0.10;0.10;;;;;;;20.54;82.98;102523.81;10411919;28;20017;-74
2022/08/31 05:50:28;;;;;;;0.10;0.10;;;;;;;21.35;78.86;102532.88;10434334;28;20027;-73
2022/08/31 05:55:29;;;;;;;0.10;0.10;;;;;;;21.79;76.71;102545.53;10431252;28;20020;-74
2022/08/31 06:00:31;;;;;;;0.10;0.10;;;;;;;22.12;73.83;102545.84;10450235;28;20514;-74
2022/08/31 06:05:31;;;;;;;0.10;0.10;;;;;;;22.16;74.77;102554.44;10414396;28;20483;-73
2022/08/31 06:10:31;;;;;;;0.10;0.10;;;;;;;22.54;75.11;102546.88;10416559;28;20039;-74
2022/08/31 06:15:32;;;;;;;0.10;0.10;;;;;;;23.16;71.71;102555.25;10452177;28;20028;-74
2022/08/31 06:20:36;;;;;;;0.00;0.00;;;;;;;23.78;70.90;102562.44;10452122;28;20021;-74
2022/08/31 06:25:37;;;;;;;0.10;0.10;;;;;;;24.42;68.62;102554.78;10445953;28;20020;-74
2022/08/31 06:30:40;;;;;;;0.10;0.10;;;;;;;24.60;62.38;102555.00;10442610;28;20039;-74
2022/08/31 06:35:41;;;;;;;0.10;0.10;;;;;;;25.00;63.21;102553.03;10414656;28;20112;-75
2022/08/31 06:40:42;;;;;;;0.10;0.10;;;;;;;25.45;62.05;102547.69;10412910;28;20044;-74
2022/08/31 06:45:42;;;;;;;0.10;0.10;;;;;;;26.07;59.28;102553.44;10415773;28;20021;-74
2022/08/31 06:50:43;;;;;;;0.10;0.10;;;;;;;26.05;61.61;102555.53;10429355;28;20023;-74
2022/08/31 06:55:43;;;;;;;0.10;0.10;;;;;;;26.09;60.19;102558.66;10450598;28;20631;-74
2022/08/31 07:00:44;;;;;;;0.10;0.10;;;;;;;25.51;62.55;102563.19;10443024;28;20472;-73
2022/08/31 07:05:44;;;;;;;0.10;0.10;;;;;;;26.04;61.47;102553.88;10418969;28;20830;-74
2022/08/31 07:10:45;;;;;;;0.00;0.00;;;;;;;25.82;61.22;102552.50;10444393;28;20021;-74
2022/08/31 07:15:46;;;;;;;0.10;0.10;;;;;;;25.59;61.60;102542.13;10416351;28;20041;-73
2022/08/31 07:20:46;;;;;;;0.10;0.10;;;;;;;25.83;60.72;102546.00;10448535;28;20051;-74
2022/08/31 07:25:46;;;;;;;0.10;0.10;;;;;;;25.71;60.09;102549.44;10435485;28;20013;-74
2022/08/31 07:30:48;;;;;;;0.10;0.10;;;;;;;25.46;56.36;102556.69;10449286;28;20029;-73
2022/08/31 07:35:49;;;;;;;0.00;0.00;;;;;;;25.50;58.45;102555.19;10427854;28;20017;-73
2022/08/31 07:46:08;;;;;;;0.10;0.10;;;;;;;25.27;60.19;102559.25;10416054;28;20022;-74
2022/08/31 07:51:09;;;;;;;0.10;0.10;;;;;;;25.12;60.13;102555.94;10435152;28;20604;-74
2022/08/31 07:56:09;;;;;;;0.10;0.10;;;;;;;24.90;59.83;102549.06;10441567;28;20035;-73
2022/08/31 08:01:10;;;;;;;0.10;0.10;;;;;;;24.89;59.74;102558.31;10427676;28;20033;-73
2022/08/31 08:06:11;;;;;;;0.10;0.10;;;;;;;24.39;62.65;102562.31;10427753;28;21080;-74
2022/08/31 08:11:22;;;;;;;0.10;0.10;;;;;;;24.29;62.54;102563.75;10430101;28;20043;-74
2022/08/31 08:16:22;;;;;;;0.10;0.10;;;;;;;24.08;64.90;102575.66;10424493;28;20104;-74
2022/08/31 08:21:22;;;;;;;0.10;0.10;;;;;;;24.29;64.85;102577.38;10438601;28;20398;-74
2022/08/31 08:26:23;;;;;;;0.00;0.00;;;;;;;24.31;63.52;102576.13;10441567;28;20029;-74
2022/08/31 08:31:23;;;;;;;0.10;0.10;;;;;;;24.04;66.57;102568.97;10456517;28;20234;-74
2022/08/31 08:36:24;;;;;;;0.10;0.10;;;;;;;23.57;67.35;102567.97;10439281;28;20025;-74
2022/08/31 08:41:30;;;;;;;0.00;0.00;;;;;;;23.02;69.00;102568.75;10429693;28;20504;-73
2022/08/31 08:46:38;;;;;;;0.00;0.00;;;;;;;22.96;71.40;102561.41;10431118;28;20028;-73
2022/08/31 08:51:39;;;;;;;0.10;0.10;;;;;;;22.93;68.82;102567.22;10451957;28;20033;-72
2022/08/31 08:56:46;;;;;;;0.00;0.00;;;;;;;22.81;72.38;102560.66;10436080;28;20075;-74
2022/08/31 09:01:51;;;;;;;0.10;0.10;;;;;;;21.73;76.15;102554.44;10455048;28;20051;-75
2022/08/31 09:07:01;;;;;;;0.00;0.00;;;;;;;21.96;79.28;102565.09;10432491;28;20120;-75
2022/08/31 09:12:29;;;;;;;0.10;0.10;;;;;;;21.70;75.42;102552.94;10426724;28;20024;-75
2022/08/31 09:17:55;;;;;;;0.00;0.00;;;;;;;21.54;73.70;102561.28;10447668;28;20029;-75
2022/08/31 09:22:57;;;;;;;0.00;0.00;;;;;;;20.54;74.97;102559.84;10426988;28;20018;-74
2022/08/31 09:28:02;;;;;;;0.10;0.10;;;;;;;21.16;75.24;102569.50;10434716;28;20072;-74
2022/08/31 09:33:02;;;;;;;0.08;0.08;;;;;;;20.98;72.35;102561.75;10438859;28;20036;-75
2022/08/31 09:38:08;;;;;;;0.00;0.00;;;;;;;21.61;73.20;102564.94;10426307;28;20369;-75
2022/08/31 09:43:13;;;;;;;0.10;0.10;;;;;;;21.65;67.44;102555.38;10438059;28;20021;-75
2022/08/31 09:48:42;;;;;;;0.00;0.00;;;;;;;21.23;71.17;102543.38;10434305;28;20495;-74
2022/08/31 09:59:04;;;;;;;0.10;0.10;;;;;;;21.01;69.37;102545.13;10431864;28;20488;-74
2022/08/31 10:04:22;;;;;;;0.10;0.10;;;;;;;20.77;69.71;102537.28;10424747;28;20396;-74
2022/08/31 10:09:28;;;;;;;0.10;0.10;;;;;;;21.75;67.51;102537.94;10419940;28;20029;-75
2022/08/31 10:14:35;;;;;;;0.00;0.00;;;;;;;21.81;65.00;102537.19;10441377;28;20048;-74
2022/08/31 10:19:54;;;;;;;0.00;0.00;;;;;;;21.81;67.54;102531.75;10425090;28;20036;-74
2022/08/31 10:25:10;;;;;;;0.10;0.10;;;;;;;22.52;59.42;102534.53;10427324;28;20027;-74
2022/08/31 10:30:22;;;;;;;0.00;0.00;;;;;;;22.71;57.97;102533.00;10423744;28;20123;-74
2022/08/31 10:35:41;;;;;;;0.00;0.00;;;;;;;22.90;50.08;102526.03;10426209;28;20049;-74
2022/08/31 10:41:01;;;;;;;0.00;0.00;;;;;;;23.09;51.49;102527.19;10429791;28;20039;-74
2022/08/31 10:46:02;;;;;;;0.00;0.00;;;;;;;23.02;46.15;102519.84;10429473;28;20032;-74
2022/08/31 10:51:21;;;;;;;0.00;0.00;;;;;;;22.97;50.99;102524.19;10426860;28;20029;-74
2022/08/31 10:56:42;;;;;;;0.10;0.10;;;;;;;23.18;49.35;102526.81;10425789;28;20135;-74
2022/08/31 11:01:53;;;;;;;0.03;0.03;;;;;;;23.19;51.71;102524.94;10422145;28;20090;-74
2022/08/31 11:07:11;;;;;;;0.08;0.08;;;;;;;22.58;49.88;102507.41;10431350;28;20507;-74
2022/08/31 11:12:17;;;;;;;0.00;0.00;;;;;;;22.11;51.13;102517.03;10428439;28;20037;-75
2022/08/31 11:17:32;;;;;;;0.10;0.10;;;;;;;22.06;53.29;102508.63;10426732;28;20025;-75
2022/08/31 11:22:36;;;;;;;0.00;0.00;;;;;;;22.60;51.30;102509.91;10428591;28;20024;-74
2022/08/31 11:27:49;;;;;;;0.10;0.10;;;;;;;22.99;48.88;102501.22;10426080;28;20032;-75
2022/08/31 11:33:06;;;;;;;0.00;0.00;;;;;;;22.86;47.21;102501.09;10419880;28;20476;-74
2022/08/31 11:38:09;;;;;;;0.00;0.00;;;;;;;22.76;45.82;102495.22;10418570;28;20174;-74
2022/08/31 11:43:31;;;;;;;0.03;0.03;;;;;;;22.74;47.79;102502.72;10425610;28;20035;-74
2022/08/31 11:48:52;;;;;;;0.10;0.10;;;;;;;22.95;46.35;102489.09;10416403;28;20116;-75
2022/08/31 11:53:54;;;;;;;0.10;0.10;;;;;;;23.19;45.42;102482.28;10427118;28;20025;-74
2022/08/31 11:59:20;;;;;;;0.10;0.10;;;;;;;23.09;46.42;102476.38;10412942;28;20035;-74
2022/08/31 12:04:40;;;;;;;0.10;0.10;;;;;;;23.09;44.43;102465.50;10430666;28;20127;-75
2022/08/31 12:10:19;;;;;;;0.10;0.10;;;;;;;23.07;43.85;102474.91;10424511;28;20088;-74
2022/08/31 12:15:32;;;;;;;0.00;0.00;;;;;;;22.54;43.96;102470.00;10409580;28;20239;-74
2022/08/31 12:26:22;;;;;;;0.00;0.00;;;;;;;22.04;47.56;102456.44;10434930;28;20314;-74
2022/08/31 12:31:23;;;;;;;0.00;0.00;;;;;;;22.51;45.38;102454.09;10424640;28;20017;-75
2022/08/31 12:36:28;;;;;;;0.00;0.00;;;;;;;22.67;43.74;102452.94;10430812;28;20021;-74
2022/08/31 12:41:29;;;;;;;0.10;0.10;;;;;;;22.77;43.45;102448.81;10415625;28;20104;-75
2022/08/31 12:46:43;;;;;;;0.00;0.00;;;;;;;22.96;44.04;102436.41;10418611;28;20117;-75
2022/08/31 12:51:49;;;;;;;0.00;0.00;;;;;;;22.91;45.71;102436.13;10431034;28;20021;-75
2022/08/31 12:57:11;;;;;;;0.00;0.00;;;;;;;22.74;43.82;102442.94;10436956;28;20033;-74
2022/08/31 13:02:12;;;;;;;0.00;0.00;;;;;;;22.74;43.20;102432.09;10435268;28;20030;-75
2022/08/31 13:07:28;;;;;;;0.00;0.00;;;;;;;22.52;44.03;102434.06;10449165;28;20025;-75
2022/08/31 13:12:29;;;;;;;0.00;0.00;;;;;;;22.55;42.95;102433.66;10444122;28;20024;-75
2022/08/31 13:17:35;;;;;;;0.10;0.10;;;;;;;22.73;43.04;102431.25;10427254;28;20045;-75
2022/08/31 13:22:47;;;;;;;0.10;0.10;;;;;;;22.38;44.12;102425.81;10425633;28;20388;-75
2022/08/31 13:27:50;;;;;;;0.00;0.00;;;;;;;22.52;43.80;102423.22;10434402;28;20027;-74
2022/08/31 13:32:51;;;;;;;0.10;0.10;;;;;;;22.65;42.26;102404.25;10437570;28;20416;-75
2022/08/31 13:38:03;;;;;;;0.00;0.00;;;;;;;22.85;42.42;102401.63;10437497;28;20033;-75
2022/08/31 13:43:07;;;;;;;0.00;0.00;;;;;;;22.96;42.93;102398.38;10428926;28;20028;-75
2022/08/31 13:48:18;;;;;;;0.00;0.00;;;;;;;23.04;42.60;102398.19;10435424;28;20033;-74
2022/08/31 13:54:03;;;;;;;0.00;0.00;;;;;;;23.10;42.99;102395.72;10421503;28;20017;-74
2022/08/31 13:59:18;;;;;;;0.10;0.10;;;;;;;23.17;42.75;102405.53;10427317;28;20026;-75
2022/08/31 14:04:47;;;;;;;0.00;0.00;;;;;;;22.81;42.45;102403.09;10426486;28;20037;-74
2022/08/31 14:09:51;;;;;;;0.10;0.10;;;;;;;22.63;40.03;102400.91;10445880;28;20487;-74
2022/08/31 14:14:54;;;;;;;0.10;0.10;;;;;;;22.57;42.35;102398.97;10413659;28;20025;-75
2022/08/31 14:19:54;;;;;;;0.10;0.10;;;;;;;22.25;42.90;102398.63;10424401;28;20025;-74
2022/08/31 14:24:55;;;;;;;0.00;0.00;;;;;;;22.17;43.48;102390.63;10436193;28;20380;-75
2022/08/31 14:29:57;;;;;;;0.00;0.00;;;;;;;22.43;44.21;102398.09;10415014;28;20017;-74
2022/08/31 14:34:57;;;;;;;0.00;0.00;;;;;;;22.69;44.32;102386.53;10438974;28;20555;-74
2022/08/31 14:40:02;;;;;;;0.00;0.00;;;;;;;22.85;45.27;102390.78;10435213;28;20111;-75
2022/08/31 14:45:17;;;;;;;0.00;0.00;;;;;;;22.81;45.00;102378.63;10440879;28;20219;-75
2022/08/31 14:50:22;;;;;;;0.00;0.00;;;;;;;22.79;45.02;102381.53;10432807;28;20472;-74
2022/08/31 14:55:24;;;;;;;0.10;0.10;;;;;;;22.63;43.97;102372.91;10445043;28;20491;-75
2022/08/31 15:00:30;;;;;;;0.00;0.00;;;;;;;22.59;45.10;102376.03;10430955;28;20025;-74
2022/08/31 15:05:32;;;;;;;0.10;0.10;;;;;;;22.37;44.38;102382.59;10427534;28;20029;-74
2022/08/31 15:10:33;;;;;;;0.00;0.00;;;;;;;21.90;45.18;102376.84;10426339;28;20540;-74
2022/08/31 15:15:35;;;;;;;0.00;0.00;;;;;;;21.49;45.74;102368.53;10433833;28;20104;-74
2022/08/31 15:20:40;;;;;;;0.00;0.00;;;;;;;21.37;47.67;102361.94;10436222;28;20021;-75
2022/08/31 15:25:40;;;;;;;0.00;0.00;;;;;;;21.45;46.05;102361.84;10421834;28;20029;-74
2022/08/31 15:30:41;;;;;;;0.00;0.00;;;;;;;21.57;47.78;102362.16;10415925;28;20043;-74
2022/08/31 15:35:42;;;;;;;0.00;0.00;;;;;;;21.70;46.85;102367.69;10431632;28;20342;-74
2022/08/31 15:40:42;;;;;;;0.00;0.00;;;;;;;21.80;46.22;102357.34;10426455;28;20380;-74
2022/08/31 15:45:43;;;;;;;0.10;0.10;;;;;;;21.82;46.21;102357.16;10432916;28;20025;-74
2022/08/31 15:50:58;;;;;;;0.10;0.10;;;;;;;21.75;46.06;102358.97;10436234;28;20020;-74
2022/08/31 15:56:05;;;;;;;0.05;0.05;;;;;;;21.64;46.41;102354.88;10420767;28;20474;-74
2022/08/31 16:01:14;;;;;;;0.00;0.00;;;;;;;21.52;47.94;102353.75;10433678;28;20021;-74
2022/08/31 16:06:15;;;;;;;0.00;0.00;;;;;;;21.48;46.75;102339.75;10424501;28;20120;-75
2022/08/31 16:11:15;;;;;;;0.00;0.00;;;;;;;21.44;46.54;102336.59;10432724;28;20105;-74
2022/08/31 16:16:19;;;;;;;0.10;0.10;;;;;;;21.48;46.62;102339.75;10424828;28;20013;-74
2022/08/31 16:21:20;;;;;;;0.10;0.10;;;;;;;21.46;46.68;102341.81;10436204;28;20315;-74
2022/08/31 16:26:22;;;;;;;0.00;0.00;;;;;;;21.39;46.72;102330.09;10439013;28;20033;-74
2022/08/31 16:31:23;;;;;;;0.00;0.00;;;;;;;21.27;47.56;102326.19;10432636;28;20477;-74
2022/08/31 16:36:27;;;;;;;0.00;0.00;;;;;;;21.05;49.99;102319.91;10430340;28;20025;-74
2022/08/31 16:41:30;;;;;;;;;;;;;;;20.80;51.47;102323.81;10423859;28;20020;-74
2022/08/31 16:46:31;;;;;;;0.10;0.10;;;;;;;20.47;54.19;102325.25;10431589;28;19913;-74
2022/08/31 16:51:31;;;;;;;0.10;0.10;;;;;;;20.21;58.81;102323.84;10428822;28;20028;-74
2022/08/31 16:56:35;;;;;;;0.10;0.10;;;;;;;20.18;61.50;102321.50;10423168;28;20049;-74
2022/08/31 17:01:38;;;;;;;0.00;0.00;;;;;;;20.29;61.45;102323.75;10429180;28;20025;-74
2022/08/31 17:06:41;;;;;;;0.00;0.00;;;;;;;20.36;61.97;102323.84;10445371;22;20123;-74
2022/08/31 17:11:47;;;;;;;0.00;0.00;;;;;;;20.33;59.82;102329.63;10438185;28;20148;-75
2022/08/31 17:16:51;;;;;;;0.00;0.00;;;;;;;20.26;59.19;102326.84;10426820;28;20483;-74
2022/08/31 17:21:51;;;;;;;0.10;0.10;;;;;;;20.13;55.80;102324.78;10420728;28;20064;-74
2022/08/31 17:26:56;;;;;;;0.10;0.10;;;;;;;20.09;57.44;102333.47;10422354;28;20392;-75
2022/08/31 17:31:58;;;;;;;0.10;0.10;;;;;;;20.04;58.18;102336.72;10425382;28;20060;-75
2022/08/31 17:37:01;;;;;;;0.00;0.00;;;;;;;20.03;57.98;102335.03;10429020;28;20033;-75
2022/08/31 17:42:02;;;;;;;0.10;0.10;;;;;;;19.94;58.19;102341.56;10437153;28;20084;-76
2022/08/31 17:47:02;;;;;;;0.00;0.00;;;;;;;19.81;59.99;102339.50;10423311;28;20549;-76
2022/08/31 17:52:03;;;;;;;0.03;0.03;;;;;;;19.63;61.63;102342.50;10421807;28;20021;-76
2022/08/31 17:57:04;;;;;;;0.10;0.10;;;;;;;19.38;63.49;102344.56;10445129;28;20036;-76
2022/08/31 18:02:12;;;;;;;0.00;0.00;;;;;;;19.08;64.71;102346.28;10427654;28;20025;-76
2022/08/31 18:07:13;;;;;;;0.10;0.10;;;;;;;18.78;66.63;102347.97;10435000;28;20570;-76
2022/08/31 18:12:15;;;;;;;0.00;0.00;;;;;;;18.49;67.78;102357.50;10422313;28;20117;-76
2022/08/31 18:17:16;;;;;;;0.00;0.00;;;;;;;18.20;68.41;102362.66;10416368;28;20101;-76
2022/08/31 18:22:18;;;;;;;0.00;0.00;;;;;;;17.91;71.12;102372.13;10425277;28;20075;-75
2022/08/31 18:27:19;;;;;;;0.10;0.10;;;;;;;17.69;70.92;102378.19;10435451;28;20039;-75
2022/08/31 18:32:19;;;;;;;0.10;0.10;;;;;;;17.53;70.65;102382.53;10420342;28;20024;-75
2022/08/31 18:37:24;;;;;;;0.10;0.10;;;;;;;17.31;71.62;102393.97;10421603;28;20526;-75
2022/08/31 18:47:46;;;;;;;0.10;0.10;;;;;;;16.69;73.95;102400.47;10437162;28;20484;-75
2022/08/31 18:52:48;;;;;;;;;;;;;;;16.35;75.70;102408.53;10439732;28;20044;-76
2022/08/31 18:57:48;;;;;;;0.10;0.10;;;;;;;15.99;78.38;102413.13;10427709;28;19909;-76
2022/08/31 19:02:49;;;;;;;0.10;0.10;;;;;;;15.67;79.62;102419.06;10436787;28;20033;-75
2022/08/31 19:07:50;;;;;;;0.10;0.10;;;;;;;15.45;80.66;102423.88;10437952;28;20028;-75
2022/08/31 19:12:54;;;;;;;0.10;0.10;;;;;;;15.22;82.58;102426.16;10425822;28;20013;-75
2022/08/31 19:17:54;;;;;;;0.10;0.10;;;;;;;15.00;84.34;102413.16;10429315;28;20032;-75
2022/08/31 19:22:55;;;;;;;0.10;0.10;;;;;;;14.85;85.97;102419.00;10433936;28;20040;-75
2022/08/31 19:27:55;;;;;;;0.10;0.10;;;;;;;14.72;86.25;102429.25;10419763;28;20021;-75
2022/08/31 19:32:56;;;;;;;0.10;0.10;;;;;;;14.62;87.45;102425.75;10429199;28;20017;-75
2022/08/31 19:37:56;;;;;;;0.10;0.10;;;;;;;14.45;88.36;102424.63;10440926;28;20060;-75
2022/08/31 19:42:56;;;;;;;0.10;0.10;;;;;;;14.25;88.38;102434.53;10441409;28;20314;-75
2022/08/31 19:47:58;;;;;;;0.10;0.10;;;;;;;14.06;88.76;102431.91;10422680;28;20271;-75
2022/08/31 19:52:59;;;;;;;0.10;0.10;;;;;;;13.89;91.22;102431.63;10433798;28;20464;-75
2022/08/31 19:57:59;;;;;;;0.10;0.10;;;;;;;13.79;93.66;102425.47;10430528;28;20021;-75
2022/08/31 20:03:00;;;;;;;0.10;0.10;;;;;;;13.78;94.43;102431.78;10426470;28;20029;-75
2022/08/31 20:08:00;;;;;;;0.00;0.00;;;;;;;13.63;94.05;102425.16;10440943;28;20029;-75
2022/08/31 20:13:00;;;;;;;0.10;0.10;;;;;;;13.36;91.50;102427.53;10438744;28;20029;-75
2022/08/31 20:18:01;;;;;;;0.10;0.10;;;;;;;13.14;93.23;102435.75;10441196;28;20051;-75
2022/08/31 20:23:02;;;;;;;0.10;0.10;;;;;;;13.04;99.72;102441.06;10432815;28;20025;-75
2022/08/31 20:28:02;;;;;;;0.10;0.10;;;;;;;13.13;100.00;102428.72;10448354;28;20016;-75
2022/08/31 20:33:03;;;;;;;0.10;0.10;;;;;;;13.29;100.00;102438.91;10446597;28;20017;-75
2022/08/31 20:38:04;;;;;;;0.10;0.10;;;;;;;13.32;100.00;102434.16;10454221;28;20513;-75
2022/08/31 20:43:10;;;;;;;0.00;0.00;;;;;;;13.25;100.00;102433.00;10437583;28;20028;-75
2022/08/31 20:53:29;;;;;;;0.10;0.10;;;;;;;13.03;100.00;102430.50;10438659;28;20488;-75
2022/08/31 20:58:31;;;;;;;0.10;0.10;;;;;;;12.97;100.00;102431.03;10426131;28;20021;-75
2022/08/31 21:03:33;;;;;;;0.10;0.10;;;;;;;12.82;100.00;102438.59;10430473;28;20442;-75
2022/08/31 21:08:37;;;;;;;0.10;0.10;;;;;;;12.57;100.00;102431.88;10447276;28;20438;-75
2022/08/31 21:13:37;;;;;;;0.10;0.10;;;;;;;12.42;100.00;102436.69;10426517;28;20100;-74
2022/08/31 21:18:39;;;;;;;0.00;0.00;;;;;;;12.34;100.00;102441.88;10448257;28;20028;-75
2022/08/31 21:23:39;;;;;;;0.10;0.10;;;;;;;12.29;100.00;102442.25;10442332;28;20502;-75
2022/08/31 21:28:45;;;;;;;0.10;0.10;;;;;;;12.23;100.00;102445.47;10446291;28;20021;-75
2022/08/31 21:33:45;;;;;;;0.00;0.00;;;;;;;12.10;100.00;102440.31;10427744;28;20461;-74
2022/08/31 21:38:46;;;;;;;0.10;0.10;;;;;;;12.06;100.00;102449.56;10427425;28;20052;-75
2022/08/31 21:43:47;;;;;;;0.10;0.10;;;;;;;12.06;100.00;102446.88;10435702;28;20021;-75
2022/08/31 21:48:51;;;;;;;0.10;0.10;;;;;;;12.00;100.00;102448.25;10441564;28;20531;-74
2022/08/31 21:53:57;;;;;;;0.10;0.10;;;;;;;11.89;100.00;102456.31;10433885;28;20021;-74
2022/08/31 21:58:58;;;;;;;0.10;0.10;;;;;;;11.85;100.00;102459.34;10432976;28;20025;-74
2022/08/31 22:03:59;;;;;;;0.10;0.10;;;;;;;11.80;100.00;102459.72;10445101;28;20064;-74
2022/08/31 22:09:10;;;;;;;0.10;0.10;;;;;;;11.70;100.00;102451.63;10434911;28;20060;-74
2022/08/31 22:14:15;;;;;;;0.00;0.00;;;;;;;11.55;100.00;102458.22;10431363;28;20017;-74
2022/08/31 22:19:19;;;;;;;0.10;0.10;;;;;;;11.40;100.00;102459.47;10433756;28;20032;-74
2022/08/31 22:24:23;;;;;;;0.00;0.00;;;;;;;11.27;100.00;102455.13;10441325;28;20013;-74
2022/08/31 22:29:30;;;;;;;0.10;0.10;;;;;;;11.20;100.00;102461.06;10432802;28;20024;-74
2022/08/31 22:34:30;;;;;;;0.03;0.03;;;;;;;11.13;100.00;102457.22;10430891;28;20131;-74
2022/08/31 22:39:30;;;;;;;0.00;0.00;;;;;;;11.03;100.00;102455.28;10442457;28;20594;-74
2022/08/31 22:44:33;;;;;;;0.10;0.10;;;;;;;10.92;100.00;102468.63;10440587;28;20100;-74
2022/08/31 22:49:33;;;;;;;0.00;0.00;;;;;;;10.85;100.00;102475.41;10433425;28;20104;-74
2022/08/31 22:54:34;;;;;;;0.10;0.10;;;;;;;10.84;100.00;102479.88;10433191;28;20514;-74
2022/08/31 22:59:35;;;;;;;0.10;0.10;;;;;;;10.85;100.00;102483.41;10425011;28;20274;-74
2022/08/31 23:04:35;;;;;;;0.10;0.10;;;;;;;10.84;100.00;102487.88;10446387;22;20045;-74
2022/08/31 23:09:35;;;;;;;0.10;0.10;;;;;;;10.84;100.00;102482.53;10410537;28;20013;-73
2022/08/31 23:14:37;;;;;;;0.00;0.00;;;;;;;10.78;100.00;102480.34;10408967;28;20448;-73
2022/08/31 23:19:40;;;;;;;0.10;0.10;;;;;;;10.90;100.00;102485.69;10408751;28;20096;-73
2022/08/31 23:24:43;;;;;;;0.00;0.00;;;;;;;10.85;100.00;102478.09;10422777;28;20422;-73
2022/08/31 23:29:47;;;;;;;0.10;0.10;;;;;;;10.70;100.00;102479.25;10448509;28;20024;-73
2022/08/31 23:34:51;;;;;;;0.00;0.00;;;;;;;10.57;100.00;102469.56;10425258;28;20013;-74
2022/08/31 23:39:52;;;;;;;0.10;0.10;;;;;;;10.54;100.00;102467.13;10423732;28;20033;-73
2022/08/31 23:44:53;;;;;;;0.10;0.10;;;;;;;10.47;100.00;102475.72;10407708;28;20018;-73